Time;durP1;ratioP1;P1;durP2;ratioP2;P2;SDS_P1;SDS_P2;PMS_P1;PMS_P2;Temp;Humidity;BMP_temperature;BMP_pressure;BME280_temperature;BME280_humidity;BME280_pressure;Samples;Min_cycle;Max_cycle;Signal;HPM_P1;HPM_P2
2022/11/22 00:00:50;;;;;;;5.03;2.78;;;7.60;99.90;;;;;;5074132;28;20200;-74
2022/11/22 00:03:35;;;;;;;5.40;2.80;;;7.60;99.90;;;;;;5072237;28;20201;-74
2022/11/22 00:06:21;;;;;;;6.63;3.00;;;7.60;99.90;;;;;;5067674;28;20530;-74
2022/11/22 00:09:08;;;;;;;6.43;3.92;;;7.70;99.90;;;;;;5073398;28;20471;-73
2022/11/22 00:11:53;;;;;;;8.52;3.00;;;7.70;99.90;;;;;;5076116;28;20220;-74
2022/11/22 00:14:39;;;;;;;3.83;2.40;;;7.70;99.90;;;;;;5069312;28;20200;-75
2022/11/22 00:17:25;;;;;;;4.55;2.50;;;7.70;99.90;;;;;;5084414;22;20239;-78
2022/11/22 00:20:11;;;;;;;6.07;3.28;;;7.70;99.90;;;;;;5089228;28;20858;-76
2022/11/22 00:22:57;;;;;;;3.60;1.80;;;7.70;99.90;;;;;;5075488;28;20244;-77
2022/11/22 00:25:45;;;;;;;7.72;2.75;;;7.60;99.90;;;;;;5067413;28;20550;-76
2022/11/22 00:28:31;;;;;;;5.28;2.30;;;7.70;99.90;;;;;;5052072;28;20204;-77
2022/11/22 00:31:17;;;;;;;3.35;2.10;;;7.80;99.90;;;;;;5055420;28;20288;-76
2022/11/22 00:34:02;;;;;;;4.47;2.50;;;7.80;99.90;;;;;;5048018;28;20295;-77
2022/11/22 00:36:48;;;;;;;5.93;2.35;;;7.80;99.90;;;;;;5047773;28;20290;-77
2022/11/22 00:39:34;;;;;;;6.60;2.75;;;7.90;99.90;;;;;;5056417;28;20200;-76
2022/11/22 00:42:21;;;;;;;6.38;3.10;;;8.00;99.90;;;;;;5049523;28;20682;-76
2022/11/22 00:45:07;;;;;;;6.10;2.78;;;8.00;99.90;;;;;;5042094;28;20231;-77
2022/11/22 00:47:53;;;;;;;6.60;2.37;;;8.00;99.90;;;;;;5051639;28;20232;-77
2022/11/22 00:50:39;;;;;;;4.20;2.40;;;8.00;99.90;;;;;;5067466;28;20947;-77
2022/11/22 00:53:24;;;;;;;6.68;2.30;;;8.10;99.90;;;;;;5056497;28;20961;-76
2022/11/22 00:56:10;;;;;;;7.30;2.38;;;8.10;99.90;;;;;;5047496;28;20244;-76
2022/11/22 00:58:57;;;;;;;6.37;2.87;;;8.10;99.90;;;;;;5049343;28;20681;-76
2022/11/22 01:01:43;;;;;;;3.00;2.08;;;8.10;99.90;;;;;;5047011;28;20443;-76
2022/11/22 01:04:28;;;;;;;9.52;2.60;;;8.20;99.90;;;;;;5042054;28;20212;-77
2022/11/22 01:07:14;;;;;;;4.03;2.63;;;8.20;99.90;;;;;;5059674;28;20776;-77
2022/11/22 01:10:00;;;;;;;9.70;2.80;;;8.10;99.90;;;;;;5062938;28;20712;-77
2022/11/22 01:12:45;;;;;;;6.37;3.13;;;8.10;99.90;;;;;;5050629;28;20271;-77
2022/11/22 01:15:32;;;;;;;7.60;2.50;;;8.10;99.90;;;;;;5044336;28;20793;-76
2022/11/22 01:18:17;;;;;;;5.00;2.63;;;8.10;99.90;;;;;;5046644;28;20209;-77
2022/11/22 01:21:03;;;;;;;4.57;2.70;;;8.00;99.90;;;;;;5050294;28;20544;-76
2022/11/22 01:23:49;;;;;;;5.27;2.90;;;8.10;99.90;;;;;;5050174;28;20208;-77
2022/11/22 01:26:35;;;;;;;7.57;2.70;;;8.10;99.90;;;;;;5050755;28;20571;-76
2022/11/22 01:29:20;;;;;;;7.60;2.58;;;8.10;99.90;;;;;;5054476;28;20452;-77
2022/11/22 01:32:07;;;;;;;4.63;2.70;;;8.10;99.90;;;;;;5047157;28;20355;-77
2022/11/22 01:34:53;;;;;;;6.13;2.83;;;8.10;99.90;;;;;;5042462;28;20274;-76
2022/11/22 01:37:39;;;;;;;3.30;2.25;;;8.10;99.90;;;;;;5055586;28;20514;-77
2022/11/22 01:40:24;;;;;;;4.43;2.60;;;8.00;99.90;;;;;;5061103;28;20573;-76
2022/11/22 01:43:16;;;;;;;7.50;2.70;;;8.00;99.90;;;;;;5045169;28;20881;-76
2022/11/22 01:46:06;;;;;;;7.95;2.40;;;8.00;99.90;;;;;;5046430;28;20343;-77
2022/11/22 01:48:56;;;;;;;5.03;2.87;;;8.10;99.90;;;;;;5051236;28;20696;-76
2022/11/22 01:51:46;;;;;;;4.87;2.83;;;8.00;99.90;;;;;;5051058;28;20924;-76
2022/11/22 01:54:35;;;;;;;2.85;2.10;;;8.00;99.90;;;;;;5045602;28;20525;-76
2022/11/22 01:57:24;;;;;;;6.25;3.50;;;8.10;99.90;;;;;;5055293;28;20628;-77
2022/11/22 02:00:13;;;;;;;3.58;2.92;;;8.10;99.90;;;;;;5046980;28;20236;-76
2022/11/22 02:03:02;;;;;;;5.22;2.80;;;8.10;99.90;;;;;;5041021;28;20351;-76
2022/11/22 02:05:50;;;;;;;3.17;2.50;;;8.10;99.90;;;;;;5054613;28;20731;-76
2022/11/22 02:08:41;;;;;;;3.70;2.67;;;8.20;99.90;;;;;;5060115;28;20490;-76
2022/11/22 02:11:28;;;;;;;5.80;3.20;;;8.20;99.90;;;;;;5054107;28;20968;-76
2022/11/22 02:14:16;;;;;;;3.70;2.90;;;8.20;99.90;;;;;;5043981;28;20720;-76
2022/11/22 02:17:02;;;;;;;5.20;3.40;;;8.30;99.90;;;;;;5048794;28;20471;-77
2022/11/22 02:19:49;;;;;;;6.15;3.47;;;8.30;99.90;;;;;;5050287;28;20523;-77
2022/11/22 02:22:41;;;;;;;4.93;3.53;;;8.30;99.90;;;;;;5042744;28;20204;-77
2022/11/22 02:25:35;;;;;;;8.73;3.75;;;8.30;99.90;;;;;;5048772;28;20235;-77
2022/11/22 02:28:21;;;;;;;12.50;4.70;;;8.40;99.90;;;;;;5051489;28;20217;-76
2022/11/22 02:31:07;;;;;;;7.80;3.22;;;8.40;99.90;;;;;;5050868;28;20612;-76
2022/11/22 02:33:52;;;;;;;7.43;3.60;;;8.40;99.90;;;;;;5038736;28;20682;-77
2022/11/22 02:36:42;;;;;;;3.97;3.38;;;8.40;99.90;;;;;;5052520;28;20519;-77
2022/11/22 02:39:31;;;;;;;8.80;3.40;;;8.50;99.90;;;;;;5049901;28;20204;-76
2022/11/22 02:42:16;;;;;;;7.40;3.87;;;8.40;99.90;;;;;;5045869;28;20482;-76
2022/11/22 02:45:04;;;;;;;5.60;3.50;;;8.40;99.90;;;;;;5052382;28;20481;-76
2022/11/22 02:47:49;;;;;;;5.60;3.63;;;8.30;99.90;;;;;;5055941;28;20455;-76
2022/11/22 02:50:35;;;;;;;5.80;3.90;;;8.30;99.90;;;;;;5060570;28;20439;-77
2022/11/22 02:53:21;;;;;;;6.38;3.45;;;8.40;99.90;;;;;;5044664;28;20298;-77
2022/11/22 02:56:06;;;;;;;8.30;3.60;;;8.40;99.90;;;;;;5061025;28;20275;-76
2022/11/22 02:58:52;;;;;;;8.60;3.50;;;8.40;99.90;;;;;;5052963;28;20431;-76
2022/11/22 03:01:39;;;;;;;5.33;3.60;;;8.40;99.90;;;;;;5061023;28;20486;-77
2022/11/22 03:04:25;;;;;;;6.30;3.50;;;8.40;99.90;;;;;;5064939;28;20533;-77
2022/11/22 03:07:10;;;;;;;4.60;3.17;;;8.50;99.90;;;;;;5073738;28;20446;-77
2022/11/22 03:09:56;;;;;;;7.23;3.53;;;8.50;99.90;;;;;;5062760;28;20435;-76
2022/11/22 03:12:41;;;;;;;6.93;3.33;;;8.50;99.90;;;;;;5053089;28;20472;-76
2022/11/22 03:15:27;;;;;;;6.80;3.93;;;8.50;99.90;;;;;;5063698;28;20226;-77
2022/11/22 03:18:14;;;;;;;7.43;4.17;;;8.60;99.90;;;;;;5064484;28;20447;-77
2022/11/22 03:21:02;;;;;;;8.83;3.47;;;8.50;99.90;;;;;;5064332;28;20448;-78
2022/11/22 03:23:47;;;;;;;7.63;3.80;;;8.60;99.90;;;;;;5057993;28;20506;-77
2022/11/22 03:26:34;;;;;;;6.67;3.10;;;8.60;99.90;;;;;;5061861;28;20231;-77
2022/11/22 03:29:19;;;;;;;8.57;3.30;;;8.60;99.90;;;;;;5047771;28;20451;-76
2022/11/22 03:32:05;;;;;;;5.60;3.53;;;8.50;99.90;;;;;;5048324;28;20456;-76
2022/11/22 03:34:52;;;;;;;6.83;3.17;;;8.50;99.90;;;;;;5062068;28;20458;-76
2022/11/22 03:37:37;;;;;;;11.05;3.05;;;8.40;99.90;;;;;;5056001;28;20459;-76
2022/11/22 03:40:23;;;;;;;7.90;3.07;;;8.50;99.90;;;;;;5066816;28;20208;-77
2022/11/22 03:43:08;;;;;;;11.87;3.80;;;8.50;99.90;;;;;;5054940;28;20458;-76
2022/11/22 03:45:54;;;;;;;9.63;3.88;;;8.40;99.90;;;;;;5059649;28;20848;-77
2022/11/22 03:48:39;;;;;;;7.20;3.07;;;8.40;99.90;;;;;;5054138;28;20204;-76
2022/11/22 03:51:27;;;;;;;13.07;3.72;;;8.40;99.90;;;;;;5049435;28;20450;-76
2022/11/22 03:54:12;;;;;;;12.53;3.30;;;8.50;99.90;;;;;;5060810;28;20227;-77
2022/11/22 03:56:58;;;;;;;14.95;4.60;;;8.50;99.90;;;;;;5056613;28;20441;-76
2022/11/22 03:59:44;;;;;;;8.30;3.50;;;8.50;99.90;;;;;;5051615;28;20209;-77
2022/11/22 04:02:30;;;;;;;14.27;3.90;;;8.50;99.90;;;;;;5055699;28;21118;-76
2022/11/22 04:05:16;;;;;;;14.87;3.83;;;8.50;99.90;;;;;;5058710;28;20212;-76
2022/11/22 04:08:03;;;;;;;9.80;4.20;;;8.50;99.90;;;;;;5071901;28;20443;-77
2022/11/22 04:10:49;;;;;;;6.57;3.22;;;8.40;99.90;;;;;;5060526;28;20443;-76
2022/11/22 04:16:38;;;;;;;10.15;3.92;;;8.40;99.90;;;;;;5052092;28;20636;-76
2022/11/22 04:19:24;;;;;;;7.73;3.03;;;8.50;99.90;;;;;;5049306;28;20214;-76
2022/11/22 04:22:08;;;;;;;14.60;3.87;;;8.40;99.90;;;;;;5044106;28;20467;-77
2022/11/22 04:25:13;;;;;;;10.83;3.23;;;8.40;99.90;;;;;;5050758;28;20439;-77
2022/11/22 04:27:59;;;;;;;11.90;3.27;;;8.40;99.90;;;;;;5046194;28;20464;-76
2022/11/22 04:33:48;;;;;;;13.00;3.37;;;8.40;99.90;;;;;;5051811;28;20259;-77
2022/11/22 04:36:34;;;;;;;14.60;4.55;;;8.40;99.90;;;;;;5054446;28;20513;-76
2022/11/22 04:39:19;;;;;;;10.25;3.00;;;8.40;99.90;;;;;;5056017;28;20666;-76
2022/11/22 04:45:10;;;;;;;9.02;3.08;;;8.40;99.90;;;;;;5058160;28;20450;-76
2022/11/22 04:48:02;;;;;;;16.23;4.10;;;8.30;99.90;;;;;;5055848;28;20779;-76
2022/11/22 04:53:51;;;;;;;10.38;3.90;;;8.40;99.90;;;;;;5049814;28;21042;-77
2022/11/22 04:56:36;;;;;;;21.25;3.65;;;8.40;99.90;;;;;;5050956;28;20221;-76
2022/11/22 04:59:23;;;;;;;7.32;2.88;;;8.40;99.90;;;;;;5043032;28;20233;-77
2022/11/22 05:02:08;;;;;;;14.07;3.28;;;8.40;99.90;;;;;;5049040;28;20326;-77
2022/11/22 05:04:54;;;;;;;10.90;2.40;;;8.40;99.90;;;;;;5047920;28;20201;-76
2022/11/22 05:07:39;;;;;;;23.63;3.70;;;8.30;99.90;;;;;;5047275;28;20224;-76
2022/11/22 05:10:25;;;;;;;10.85;3.30;;;8.30;99.90;;;;;;5046537;28;20268;-76
2022/11/22 05:13:10;;;;;;;15.23;3.55;;;8.30;99.90;;;;;;5048351;28;20776;-76
2022/11/22 05:15:59;;;;;;;14.63;3.60;;;8.30;99.90;;;;;;5047528;28;20217;-76
2022/11/22 05:18:57;;;;;;;11.38;3.33;;;8.30;99.90;;;;;;5046685;28;20282;-76
2022/11/22 05:21:43;;;;;;;20.33;3.70;;;8.30;99.90;;;;;;5049701;28;20323;-76
2022/11/22 05:24:27;;;;;;;11.77;3.40;;;8.20;99.90;;;;;;5052112;28;20307;-77
2022/11/22 05:27:13;;;;;;;17.33;3.25;;;8.30;99.90;;;;;;5048197;28;20224;-76
2022/11/22 05:29:59;;;;;;;18.85;3.85;;;8.20;99.90;;;;;;5044404;28;20201;-77
2022/11/22 05:32:46;;;;;;;8.70;3.40;;;8.30;99.90;;;;;;5052144;28;20741;-76
2022/11/22 05:35:32;;;;;;;16.13;3.90;;;8.20;99.90;;;;;;5044665;28;20510;-77
2022/11/22 05:38:17;;;;;;;15.07;3.20;;;8.30;99.90;;;;;;5047385;28;20474;-76
2022/11/22 05:41:03;;;;;;;10.13;3.10;;;8.30;99.90;;;;;;5043952;28;20702;-77
2022/11/22 05:43:49;;;;;;;24.00;4.73;;;8.10;99.90;;;;;;5055025;28;20198;-77
2022/11/22 05:46:34;;;;;;;10.55;3.40;;;8.10;99.90;;;;;;5044142;28;20489;-77
2022/11/22 05:49:21;;;;;;;16.58;4.20;;;8.10;99.90;;;;;;5047639;28;20332;-76
2022/11/22 05:52:08;;;;;;;14.13;3.53;;;7.90;99.90;;;;;;5046619;28;20208;-77
2022/11/22 05:54:54;;;;;;;16.00;3.75;;;7.90;99.90;;;;;;5059294;28;20700;-76
2022/11/22 05:57:39;;;;;;;18.95;3.95;;;7.90;99.90;;;;;;5062459;28;20294;-76
2022/11/22 06:00:26;;;;;;;16.10;3.17;;;7.80;99.90;;;;;;5045434;28;20259;-77
2022/11/22 06:03:11;;;;;;;14.32;3.25;;;7.90;99.90;;;;;;5047144;28;20594;-76
2022/11/22 06:05:58;;;;;;;11.68;3.15;;;7.90;99.90;;;;;;5046070;28;20213;-77
2022/11/22 06:08:46;;;;;;;15.07;3.10;;;7.90;99.90;;;;;;5050865;28;20279;-77
2022/11/22 06:11:32;;;;;;;12.38;3.10;;;7.80;99.90;;;;;;5044597;28;20586;-77
2022/11/22 06:14:18;;;;;;;12.10;2.47;;;7.90;99.90;;;;;;5064464;28;20227;-77
2022/11/22 06:17:03;;;;;;;16.20;3.65;;;7.90;99.90;;;;;;5072167;22;20229;-75
2022/11/22 06:19:49;;;;;;;11.40;3.25;;;7.80;99.90;;;;;;5044725;28;20278;-75
2022/11/22 06:22:36;;;;;;;21.75;3.50;;;7.90;99.90;;;;;;5047922;28;20299;-76
2022/11/22 06:25:22;;;;;;;18.13;3.30;;;7.80;99.90;;;;;;5052113;28;20704;-74
2022/11/22 06:28:07;;;;;;;28.98;3.97;;;7.80;99.90;;;;;;5050703;28;20744;-74
2022/11/22 06:30:53;;;;;;;8.97;3.00;;;7.80;99.90;;;;;;5048522;28;20336;-76
2022/11/22 06:33:39;;;;;;;12.23;3.05;;;7.80;99.90;;;;;;5056575;28;20961;-76
2022/11/22 06:36:26;;;;;;;9.67;2.97;;;7.80;99.90;;;;;;5045398;28;20598;-76
2022/11/22 06:39:13;;;;;;;12.07;2.90;;;7.90;99.90;;;;;;5041745;28;20451;-76
2022/11/22 06:41:59;;;;;;;17.17;4.85;;;7.90;99.90;;;;;;5047899;28;20205;-75
2022/11/22 06:44:44;;;;;;;10.65;3.72;;;8.00;99.90;;;;;;5050591;28;20244;-75
2022/11/22 06:47:30;;;;;;;11.80;3.10;;;8.00;99.90;;;;;;5064084;28;20231;-75
2022/11/22 06:50:16;;;;;;;11.10;4.15;;;7.90;99.90;;;;;;5044396;28;20472;-75
2022/11/22 06:53:02;;;;;;;8.82;2.33;;;7.90;99.90;;;;;;5048958;28;20267;-75
2022/11/22 06:55:48;;;;;;;14.68;3.60;;;8.00;99.90;;;;;;5055732;28;20324;-76
2022/11/22 06:58:35;;;;;;;14.90;3.50;;;8.10;99.90;;;;;;5046632;28;20636;-74
2022/11/22 07:01:22;;;;;;;11.50;3.05;;;8.10;99.90;;;;;;5052677;28;20427;-75
2022/11/22 07:04:07;;;;;;;11.88;2.75;;;8.20;99.90;;;;;;5046911;28;20200;-75
2022/11/22 07:06:53;;;;;;;16.50;2.90;;;8.10;99.90;;;;;;5046990;28;20281;-75
2022/11/22 07:09:39;;;;;;;11.70;2.30;;;8.10;99.90;;;;;;5040842;28;20497;-75
2022/11/22 07:12:26;;;;;;;12.63;3.00;;;8.00;99.90;;;;;;5045223;28;20451;-75
2022/11/22 07:15:11;;;;;;;11.40;2.85;;;8.00;99.90;;;;;;5044974;28;20248;-75
2022/11/22 07:18:00;;;;;;;10.87;2.30;;;8.00;99.90;;;;;;5046006;28;20245;-73
2022/11/22 07:20:46;;;;;;;12.70;2.80;;;8.00;99.90;;;;;;5046196;28;21002;-75
2022/11/22 07:23:31;;;;;;;15.90;4.30;;;8.00;99.90;;;;;;5049412;28;20216;-75
2022/11/22 07:26:19;;;;;;;18.00;3.10;;;7.90;99.90;;;;;;5042584;28;20418;-75
2022/11/22 07:29:05;;;;;;;18.33;3.08;;;8.00;99.90;;;;;;5040868;28;21043;-75
2022/11/22 07:31:51;;;;;;;24.02;2.90;;;7.90;99.90;;;;;;5046656;28;20272;-76
2022/11/22 07:34:37;;;;;;;19.98;3.67;;;8.00;99.90;;;;;;5044048;28;20221;-75
2022/11/22 07:37:22;;;;;;;10.52;3.17;;;8.00;99.90;;;;;;5043673;28;20225;-76
2022/11/22 07:40:09;;;;;;;15.32;3.90;;;8.10;99.90;;;;;;5044066;28;20756;-75
2022/11/22 07:42:54;;;;;;;16.00;4.13;;;8.10;99.90;;;;;;5050698;28;20204;-76
2022/11/22 07:45:42;;;;;;;15.20;3.10;;;8.10;99.90;;;;;;5045003;28;20232;-75
2022/11/22 07:48:27;;;;;;;8.70;2.90;;;8.10;99.90;;;;;;5044954;28;20221;-75
2022/11/22 07:51:13;;;;;;;20.50;3.33;;;8.10;99.90;;;;;;5049270;28;20861;-76
2022/11/22 07:53:58;;;;;;;18.38;3.33;;;8.10;99.90;;;;;;5057222;28;20583;-76
2022/11/22 07:56:44;;;;;;;13.50;3.60;;;8.00;99.90;;;;;;5054793;28;20592;-75
2022/11/22 07:59:30;;;;;;;13.48;3.40;;;7.90;99.90;;;;;;5047276;28;20209;-76
2022/11/22 08:02:17;;;;;;;13.93;2.70;;;7.90;99.90;;;;;;5054467;28;20584;-76
2022/11/22 08:05:02;;;;;;;15.70;2.85;;;7.90;99.90;;;;;;5061327;28;20203;-75
2022/11/22 08:07:48;;;;;;;13.30;3.10;;;7.90;99.90;;;;;;5051015;28;20664;-75
2022/11/22 08:10:34;;;;;;;13.95;2.97;;;8.00;99.90;;;;;;5056503;28;20201;-76
2022/11/22 08:13:19;;;;;;;15.18;2.97;;;8.00;99.90;;;;;;5069734;28;20211;-76
2022/11/22 08:16:07;;;;;;;16.27;3.97;;;8.00;99.90;;;;;;5053729;28;20328;-75
2022/11/22 08:18:54;;;;;;;9.98;3.08;;;8.10;99.90;;;;;;5051544;28;20283;-74
2022/11/22 08:21:39;;;;;;;13.10;3.03;;;8.00;99.90;;;;;;5055111;28;20498;-75
2022/11/22 08:24:25;;;;;;;11.93;3.35;;;8.10;99.90;;;;;;5060422;28;20674;-75
2022/11/22 08:27:10;;;;;;;17.58;4.10;;;8.10;99.90;;;;;;5051148;28;20231;-73
2022/11/22 08:29:56;;;;;;;14.20;2.90;;;8.10;99.90;;;;;;5048322;28;20200;-75
2022/11/22 08:32:42;;;;;;;5.53;2.17;;;8.20;99.90;;;;;;5063642;28;20226;-75
2022/11/22 08:35:29;;;;;;;14.05;3.03;;;8.30;99.90;;;;;;5050966;28;20229;-75
2022/11/22 08:38:14;;;;;;;21.73;4.00;;;8.30;99.90;;;;;;5047846;28;20226;-76
2022/11/22 08:41:00;;;;;;;10.38;2.45;;;8.40;99.90;;;;;;5050826;28;20205;-76
2022/11/22 08:43:46;;;;;;;6.70;2.05;;;8.40;99.90;;;;;;5044424;28;20204;-72
2022/11/22 08:46:31;;;;;;;8.23;2.10;;;8.40;99.90;;;;;;5056723;28;20912;-76
2022/11/22 08:49:17;;;;;;;14.10;4.50;;;8.40;99.90;;;;;;5047709;28;20208;-74
2022/11/22 08:52:04;;;;;;;12.97;3.00;;;8.40;99.90;;;;;;5057844;28;20455;-76
2022/11/22 08:54:50;;;;;;;10.18;2.95;;;8.40;99.90;;;;;;5056317;28;21019;-75
2022/11/22 08:57:35;;;;;;;14.60;3.00;;;8.40;99.90;;;;;;5042819;28;20362;-76
2022/11/22 09:00:21;;;;;;;8.10;2.53;;;8.40;99.90;;;;;;5047494;28;20208;-75
2022/11/22 09:03:07;;;;;;;10.13;2.42;;;8.50;99.90;;;;;;5054428;28;20448;-75
2022/11/22 09:05:52;;;;;;;10.95;3.40;;;8.50;99.90;;;;;;5057431;28;20422;-75
2022/11/22 09:08:39;;;;;;;6.83;2.23;;;8.50;99.90;;;;;;5048823;28;20244;-76
2022/11/22 09:11:25;;;;;;;13.30;2.70;;;8.50;99.90;;;;;;5056035;28;20802;-76
2022/11/22 09:14:11;;;;;;;11.98;2.42;;;8.40;99.90;;;;;;5053940;28;20216;-75
2022/11/22 09:16:56;;;;;;;20.27;2.93;;;8.50;99.90;;;;;;5049823;28;20457;-72
2022/11/22 09:19:42;;;;;;;13.02;2.70;;;8.50;99.90;;;;;;5050582;28;20452;-76
2022/11/22 09:22:28;;;;;;;13.73;2.08;;;8.60;99.90;;;;;;5052633;28;20260;-76
2022/11/22 09:25:15;;;;;;;13.68;2.97;;;8.50;99.90;;;;;;5056417;28;20569;-76
2022/11/22 09:28:02;;;;;;;6.65;2.17;;;8.50;99.90;;;;;;5045794;28;20352;-76
2022/11/22 09:30:47;;;;;;;9.20;2.25;;;8.50;99.90;;;;;;5046283;28;20300;-75
2022/11/22 09:33:34;;;;;;;8.40;2.30;;;8.50;99.90;;;;;;5053319;28;20544;-76
2022/11/22 09:36:21;;;;;;;13.07;2.58;;;8.50;99.90;;;;;;5061761;28;20428;-75
2022/11/22 09:39:08;;;;;;;9.30;2.20;;;8.60;99.90;;;;;;5047077;28;20201;-76
2022/11/22 09:42:25;;;;;;;7.78;2.25;;;8.60;99.90;;;;;;5060093;28;20431;-75
2022/11/22 09:45:42;;;;;;;12.43;2.50;;;8.50;99.90;;;;;;5051845;28;20205;-76
2022/11/22 09:48:51;;;;;;;12.07;2.23;;;8.50;99.90;;;;;;5048213;28;20660;-75
2022/11/22 09:51:40;;;;;;;12.53;2.80;;;8.60;99.90;;;;;;5046382;28;20866;-75
2022/11/22 09:54:30;;;;;;;10.43;2.53;;;8.70;99.90;;;;;;5047931;28;20845;-76
2022/11/22 09:57:23;;;;;;;8.98;2.45;;;8.70;99.90;;;;;;5044273;28;20275;-75
2022/11/22 10:00:27;;;;;;;15.35;2.72;;;8.80;99.90;;;;;;5036702;28;20686;-76
2022/11/22 10:03:24;;;;;;;8.00;2.33;;;8.80;99.90;;;;;;5053431;28;20215;-76
2022/11/22 10:06:16;;;;;;;8.88;3.88;;;8.80;99.90;;;;;;5046519;28;20459;-76
2022/11/22 10:09:13;;;;;;;12.60;2.57;;;8.70;99.90;;;;;;5053957;28;20212;-73
2022/11/22 10:12:03;;;;;;;11.48;2.45;;;8.70;99.90;;;;;;5050087;28;20921;-76
2022/11/22 10:14:57;;;;;;;8.13;2.07;;;8.70;99.90;;;;;;5058867;28;20239;-75
2022/11/22 10:17:52;;;;;;;9.52;2.03;;;8.70;99.90;;;;;;5048268;28;20530;-76
2022/11/22 10:20:41;;;;;;;14.73;2.97;;;8.80;99.90;;;;;;5046110;28;20205;-76
2022/11/22 10:23:27;;;;;;;7.83;2.10;;;8.90;99.90;;;;;;5048015;28;20468;-76
2022/11/22 10:26:22;;;;;;;10.65;2.40;;;8.90;99.90;;;;;;5047288;28;20540;-73
2022/11/22 10:29:26;;;;;;;10.27;2.40;;;9.00;99.90;;;;;;5046567;28;20208;-76
2022/11/22 10:32:19;;;;;;;15.10;2.15;;;9.00;99.90;;;;;;5047375;28;20446;-72
2022/11/22 10:35:21;;;;;;;17.50;3.57;;;9.00;99.90;;;;;;5043926;28;20229;-76
2022/11/22 10:38:29;;;;;;;10.70;2.40;;;9.00;99.90;;;;;;5038575;28;20825;-76
2022/11/22 10:41:28;;;;;;;10.63;2.40;;;9.00;99.90;;;;;;5049586;28;20454;-76
2022/11/22 10:44:25;;;;;;;12.38;2.35;;;9.00;99.90;;;;;;5058868;28;20250;-76
2022/11/22 10:47:18;;;;;;;7.47;2.20;;;9.00;99.90;;;;;;5052891;28;20585;-76
2022/11/22 10:50:11;;;;;;;6.50;3.97;;;9.00;99.90;;;;;;5048804;28;20497;-75
2022/11/22 10:53:03;;;;;;;10.15;3.00;;;9.10;99.90;;;;;;5041183;28;20263;-76
2022/11/22 10:55:58;;;;;;;15.23;2.73;;;9.20;99.90;;;;;;5059617;28;20309;-76
2022/11/22 10:59:00;;;;;;;6.68;3.10;;;9.00;99.90;;;;;;5046840;28;20410;-76
2022/11/22 11:01:53;;;;;;;11.13;2.87;;;8.90;99.90;;;;;;5058843;28;20205;-73
2022/11/22 11:04:42;;;;;;;10.40;2.30;;;8.80;99.90;;;;;;5061058;28;21046;-76
2022/11/22 11:07:28;;;;;;;13.18;2.05;;;8.80;99.90;;;;;;5051836;28;20529;-74
2022/11/22 11:10:17;;;;;;;9.23;2.15;;;8.70;99.90;;;;;;5055351;28;20220;-76
2022/11/22 11:13:15;;;;;;;7.78;2.17;;;8.70;99.90;;;;;;5041225;28;20205;-75
2022/11/22 11:16:04;;;;;;;10.75;2.95;;;8.90;99.90;;;;;;5048280;28;20228;-76
2022/11/22 11:18:55;;;;;;;12.98;2.58;;;8.90;99.90;;;;;;5057125;28;20298;-76
2022/11/22 11:21:42;;;;;;;15.07;2.90;;;9.00;99.90;;;;;;5058287;28;20197;-74
2022/11/22 11:24:29;;;;;;;11.30;2.53;;;9.00;99.90;;;;;;5057594;28;20204;-74
2022/11/22 11:27:18;;;;;;;14.27;2.37;;;9.10;99.90;;;;;;5055859;28;20450;-76
2022/11/22 11:30:05;;;;;;;5.30;1.87;;;9.20;99.90;;;;;;5043619;28;20526;-76
2022/11/22 11:32:52;;;;;;;4.70;1.70;;;9.30;99.90;;;;;;5047467;28;20451;-76
2022/11/22 11:35:38;;;;;;;18.10;2.45;;;9.40;99.90;;;;;;5054762;28;20494;-76
2022/11/22 11:38:37;;;;;;;11.33;2.40;;;9.30;99.90;;;;;;5051363;28;20295;-76
2022/11/22 11:41:29;;;;;;;9.10;1.60;;;9.30;99.90;;;;;;5063486;28;20456;-76
2022/11/22 11:44:27;;;;;;;8.60;1.70;;;9.40;99.90;;;;;;5053230;28;20574;-75
2022/11/22 11:47:18;;;;;;;14.77;2.40;;;9.50;99.90;;;;;;5057353;28;20481;-75
2022/11/22 11:50:16;;;;;;;8.07;2.13;;;9.50;99.90;;;;;;5050203;28;20505;-76
2022/11/22 11:53:05;;;;;;;6.77;1.90;;;9.50;99.90;;;;;;5046498;28;20730;-76
2022/11/22 11:55:52;;;;;;;5.00;1.77;;;9.50;99.90;;;;;;5066001;28;20472;-76
2022/11/22 11:58:38;;;;;;;5.40;1.52;;;9.40;99.90;;;;;;5063055;28;20454;-75
2022/11/22 12:01:25;;;;;;;8.13;2.07;;;9.40;99.90;;;;;;5035442;28;20314;-76
2022/11/22 12:04:20;;;;;;;9.53;2.23;;;9.50;99.90;;;;;;5044853;28;20423;-76
2022/11/22 12:07:18;;;;;;;11.57;3.00;;;9.60;99.90;;;;;;5061507;28;20434;-76
2022/11/22 12:10:26;;;;;;;3.57;2.40;;;9.70;99.90;;;;;;5050609;28;20864;-76
2022/11/22 12:13:20;;;;;;;5.33;1.47;;;9.60;99.90;;;;;;5057034;28;20419;-76
2022/11/22 12:16:16;;;;;;;7.37;2.10;;;9.80;99.90;;;;;;5054401;28;20466;-76
2022/11/22 12:19:10;;;;;;;8.60;2.43;;;9.80;99.90;;;;;;5067748;22;20635;-77
2022/11/22 12:22:01;;;;;;;9.93;2.37;;;9.70;99.90;;;;;;5045368;28;20444;-77
2022/11/22 12:24:53;;;;;;;7.23;1.70;;;9.80;99.90;;;;;;5060236;28;20431;-76
2022/11/22 12:27:38;;;;;;;6.37;1.87;;;9.90;99.90;;;;;;5050700;28;20926;-77
2022/11/22 12:30:25;;;;;;;14.50;4.13;;;9.80;99.90;;;;;;5050931;28;20426;-76
2022/11/22 12:33:18;;;;;;;18.80;7.90;;;9.80;99.90;;;;;;5052913;28;20468;-76
2022/11/22 12:36:08;;;;;;;6.37;1.77;;;9.70;99.90;;;;;;5049987;28;20602;-77
2022/11/22 12:38:55;;;;;;;10.20;2.70;;;9.70;99.90;;;;;;5059113;28;20521;-77
2022/11/22 12:41:43;;;;;;;5.07;1.53;;;9.80;99.90;;;;;;5048416;28;20505;-77
2022/11/22 12:44:34;;;;;;;11.13;4.30;;;9.80;99.90;;;;;;5049198;28;20439;-77
2022/11/22 12:47:25;;;;;;;9.70;3.00;;;9.80;99.90;;;;;;5059011;28;20451;-75
2022/11/22 12:50:20;;;;;;;25.35;9.40;;;9.80;99.90;;;;;;5048819;28;20549;-76
2022/11/22 12:53:10;;;;;;;8.70;2.40;;;9.80;99.90;;;;;;5047002;28;20620;-77
2022/11/22 12:56:02;;;;;;;6.80;1.77;;;9.80;99.90;;;;;;5051040;28;20471;-76
2022/11/22 12:58:55;;;;;;;4.70;1.63;;;9.70;99.90;;;;;;5055110;28;20438;-76
2022/11/22 13:01:47;;;;;;;7.37;2.60;;;9.90;99.90;;;;;;5048333;28;20452;-77
2022/11/22 13:04:44;;;;;;;6.77;2.03;;;9.80;99.90;;;;;;5050921;28;20470;-77
2022/11/22 13:07:45;;;;;;;7.80;1.77;;;9.90;99.90;;;;;;5054100;28;20533;-77
2022/11/22 13:10:37;;;;;;;8.10;1.90;;;9.90;99.90;;;;;;5043522;28;20521;-76
2022/11/22 13:13:25;;;;;;;9.60;2.40;;;10.00;99.90;;;;;;5049379;28;20788;-76
2022/11/22 13:16:12;;;;;;;9.67;2.57;;;9.90;99.90;;;;;;5049300;28;20606;-77
2022/11/22 13:19:01;;;;;;;6.20;2.37;;;9.90;99.90;;;;;;5039385;28;20456;-76
2022/11/22 13:22:01;;;;;;;17.50;5.57;;;9.90;99.90;;;;;;5038757;28;20456;-76
2022/11/22 13:25:02;;;;;;;9.53;2.90;;;9.90;99.90;;;;;;5038965;28;21351;-76
2022/11/22 13:27:50;;;;;;;8.90;2.00;;;9.80;99.90;;;;;;5052255;28;20540;-76
2022/11/22 13:30:39;;;;;;;6.43;2.03;;;9.80;99.90;;;;;;5052788;28;20812;-76
2022/11/22 13:33:25;;;;;;;7.83;2.13;;;9.80;99.90;;;;;;5049664;28;20436;-76
2022/11/22 13:36:37;;;;;;;7.43;2.13;;;9.90;99.90;;;;;;5064493;22;20498;-77
2022/11/22 13:39:25;;;;;;;8.60;1.73;;;9.80;99.90;;;;;;5071847;28;20445;-78
2022/11/22 13:42:16;;;;;;;7.70;1.90;;;9.80;99.90;;;;;;5074315;28;20522;-77
2022/11/22 13:45:20;;;;;;;10.43;1.80;;;9.90;99.90;;;;;;5071658;28;20455;-78
2022/11/22 13:48:10;;;;;;;3.83;1.33;;;9.80;99.90;;;;;;5073611;28;20402;-75
2022/11/22 13:51:03;;;;;;;8.10;1.67;;;9.80;99.90;;;;;;5066499;28;20442;-76
2022/11/22 13:53:49;;;;;;;9.30;2.10;;;9.70;99.90;;;;;;5073008;22;20491;-74
2022/11/22 13:56:58;;;;;;;11.03;2.17;;;9.70;99.90;;;;;;5070813;28;20215;-75
2022/11/22 13:59:44;;;;;;;6.40;1.70;;;9.80;99.90;;;;;;5064422;28;20438;-75
2022/11/22 14:02:29;;;;;;;8.07;1.97;;;9.70;99.90;;;;;;5068718;28;20450;-76
2022/11/22 14:05:18;;;;;;;7.50;2.13;;;9.80;99.90;;;;;;5057837;28;20585;-75
2022/11/22 14:08:05;;;;;;;6.43;2.10;;;9.70;99.90;;;;;;5063790;28;20881;-76
2022/11/22 14:11:08;;;;;;;10.68;2.60;;;9.70;99.90;;;;;;5061202;28;20455;-75
2022/11/22 14:14:04;;;;;;;4.87;1.73;;;9.70;99.90;;;;;;5060776;28;20232;-76
2022/11/22 14:17:00;;;;;;;7.50;1.70;;;9.80;99.90;;;;;;5062753;28;20471;-77
2022/11/22 14:20:00;;;;;;;5.93;1.60;;;9.70;99.90;;;;;;5070916;28;21087;-75
2022/11/22 14:22:50;;;;;;;7.43;1.93;;;9.70;99.90;;;;;;5054913;28;20462;-76
2022/11/22 14:25:55;;;;;;;4.03;2.00;;;9.60;99.90;;;;;;5059875;28;20466;-75
2022/11/22 14:29:14;;;;;;;4.90;2.00;;;9.60;99.90;;;;;;5068051;28;20442;-77
2022/11/22 14:32:04;;;;;;;8.47;1.80;;;9.60;99.90;;;;;;5063025;28;20450;-75
2022/11/22 14:35:17;;;;;;;5.83;1.50;;;9.60;99.90;;;;;;5060455;28;20474;-76
2022/11/22 14:38:28;;;;;;;5.33;1.80;;;9.60;99.90;;;;;;5069143;28;20449;-75
2022/11/22 14:41:42;;;;;;;6.30;1.43;;;9.60;99.90;;;;;;5066042;28;20450;-75
2022/11/22 14:44:33;;;;;;;8.47;2.10;;;9.60;99.90;;;;;;5056420;28;20470;-76
2022/11/22 14:47:20;;;;;;;5.73;1.50;;;9.60;99.90;;;;;;5065065;28;20449;-75
2022/11/22 14:50:14;;;;;;;6.77;1.50;;;9.60;99.90;;;;;;5061255;28;20528;-74
2022/11/22 14:53:09;;;;;;;5.13;1.67;;;9.50;99.90;;;;;;5059735;28;20438;-74
2022/11/22 14:56:03;;;;;;;3.70;1.70;;;9.50;99.90;;;;;;5062619;28;20486;-75
2022/11/22 14:58:58;;;;;;;9.43;1.80;;;9.40;99.90;;;;;;5059220;28;20488;-75